You are not logged in, Click here to log in
福岡空港/板付機場 FUK / RJFF 日本福岡縣福岡市博多區
ICAO: RJFF Country: 日本福岡縣福岡市博多區
Latitude: 33.5903 Longitude: 130.447
Total Arrivals: 149 Total Departures: 133
Latest Arrival: AE140 (RKPC-RJFF)Lun. Wang Latest Departure: NH1205 (RJFF-ROAH)Lun. Wang
Scenery:
METAR : RJFF 190430Z VRB03KT 9999 FEW030 11/M01 Q1027 BECMG 32007KT

福岡空港/板付機場 FUK

You are accessing this site from IP address 35.175.113.29. Virtual Airline. CMS by phpVMS.Website designed by Zumeweb and edited by Theo Bearman.
There is 0 User(s) Online: | and 3 Guest(s) Online.
All information on this site is for fight simulation purposes only. This site is for flight logging for pilots of Virtual Airline&模擬飛行論壇 FlySim only.